PWSweather.com
Personal Weather Stations
Station Observations
UXOLA
Alcoy, AlcoyES

AlcoyAlcoyES

Lat: 38.70299, Lon: -0.48184

Elevation: 1935

Station Type: PCE FWS-20,

http://www.fiestasalcoy.xyz

High Low Average
Temperature 60.6°F15.9°C 45.0°F7.2°C 51.5°F10.8°C
Dew Point 37.5°F3.1°C 11.2°F-11.6°C 26.2°F-3.2°C
Winds 13.0 mph 20.9 kmh 0.7 mph 1.1 kmh 6.0 mph SW9.7 kmh SW
Wind Gusts 25.9 mph41.7 kmh 3.8 mph6.1 kmh 13.0 mph20.9 kmh
Humidity 60% 15% 39%
Pressure 29.88 in1011.9 mb 29.72 in1006.4 mb -
Precipitation 0.00 in0.0 mm - -
Hour Temp Dew Point Humidity Winds Wind Gusts Pressure Precip Precip Rate Daily Precip Total
12:00 AM 52.5°F11.4°C 37.3°F2.9°C 56% 3.8 mph S6.1 kmh S 13.6 mph21.9 kmh 29.72 in1006.4 mb 0.00 in0.0 mm 0.00 in0.0 mm 0.00 in0.0 mm
12:15 AM 51.8°F11.0°C 37.5°F3.1°C 58% 5.4 mph SW8.7 kmh SW 10.7 mph17.2 kmh 29.72 in1006.4 mb 0.00 in0.0 mm 0.00 in0.0 mm 0.00 in0.0 mm
12:30 AM 51.3°F10.7°C 37.4°F3.0°C 59% 3.8 mph SSW6.1 kmh SSW 14.5 mph23.3 kmh 29.72 in1006.4 mb 0.00 in0.0 mm 0.00 in0.0 mm 0.00 in0.0 mm
12:45 AM 50.9°F10.5°C 36.7°F2.6°C 58% 3.1 mph W5.0 kmh W 18.3 mph29.5 kmh 29.73 in1006.8 mb 0.00 in0.0 mm 0.00 in0.0 mm 0.00 in0.0 mm
01:00 AM 50.5°F10.3°C 36.3°F2.4°C 58% 9.2 mph WSW14.8 kmh WSW 14.5 mph23.3 kmh 29.73 in1006.8 mb 0.00 in0.0 mm 0.00 in0.0 mm 0.00 in0.0 mm
01:15 AM 50.2°F10.1°C 36.8°F2.7°C 60% 6.0 mph ESE9.7 kmh ESE 19.0 mph30.6 kmh 29.73 in1006.8 mb 0.00 in0.0 mm 0.00 in0.0 mm 0.00 in0.0 mm
01:30 AM 49.8°F9.9°C 36.1°F2.3°C 59% 2.2 mph SSE3.5 kmh SSE 14.5 mph23.3 kmh 29.74 in1007.1 mb 0.00 in0.0 mm 0.00 in0.0 mm 0.00 in0.0 mm
01:45 AM 49.6°F9.8°C 34.6°F1.4°C 56% 2.2 mph WSW3.5 kmh WSW 10.7 mph17.2 kmh 29.73 in1006.8 mb 0.00 in0.0 mm 0.00 in0.0 mm 0.00 in0.0 mm
02:00 AM 49.6°F9.8°C 33.7°F0.9°C 54% 3.1 mph NE5.0 kmh NE 22.8 mph36.7 kmh 29.73 in1006.8 mb 0.00 in0.0 mm 0.00 in0.0 mm 0.00 in0.0 mm
02:15 AM 49.6°F9.8°C 32.7°F0.4°C 52% 10.7 mph W17.2 kmh W 17.4 mph28.0 kmh 29.75 in1007.5 mb 0.00 in0.0 mm 0.00 in0.0 mm 0.00 in0.0 mm
02:30 AM 49.5°F9.7°C 32.6°F0.3°C 52% 6.0 mph N9.7 kmh N 25.9 mph41.7 kmh 29.76 in1007.8 mb 0.00 in0.0 mm 0.00 in0.0 mm 0.00 in0.0 mm
02:45 AM 49.1°F9.5°C 32.2°F0.1°C 52% 8.3 mph WNW13.4 kmh WNW 15.2 mph24.5 kmh 29.77 in1008.1 mb 0.00 in0.0 mm 0.00 in0.0 mm 0.00 in0.0 mm
03:00 AM 48.6°F9.2°C 32.2°F0.1°C 53% 6.0 mph NNE9.7 kmh NNE 9.2 mph14.8 kmh 29.78 in1008.5 mb 0.00 in0.0 mm 0.00 in0.0 mm 0.00 in0.0 mm
03:15 AM 48.2°F9.0°C 31.4°F-0.3°C 52% 9.2 mph W14.8 kmh W 12.1 mph19.5 kmh 29.78 in1008.5 mb 0.00 in0.0 mm 0.00 in0.0 mm 0.00 in0.0 mm
03:30 AM 47.8°F8.8°C 31.1°F-0.5°C 52% 5.4 mph NNE8.7 kmh NNE 13.0 mph20.9 kmh 29.79 in1008.8 mb 0.00 in0.0 mm 0.00 in0.0 mm 0.00 in0.0 mm
03:45 AM 47.7°F8.7°C 30.4°F-0.9°C 51% 2.2 mph NE3.5 kmh NE 11.4 mph18.3 kmh 29.79 in1008.8 mb 0.00 in0.0 mm 0.00 in0.0 mm 0.00 in0.0 mm
04:00 AM 47.7°F8.7°C 29.9°F-1.2°C 50% 5.4 mph ENE8.7 kmh ENE 10.7 mph17.2 kmh 29.80 in1009.1 mb 0.00 in0.0 mm 0.00 in0.0 mm 0.00 in0.0 mm
04:15 AM 47.3°F8.5°C 29.6°F-1.3°C 50% 6.0 mph SW9.7 kmh SW 8.3 mph13.4 kmh 29.80 in1009.1 mb 0.00 in0.0 mm 0.00 in0.0 mm 0.00 in0.0 mm
04:30 AM 47.1°F8.4°C 27.9°F-2.3°C 47% 3.1 mph SW5.0 kmh SW 13.6 mph21.9 kmh 29.80 in1009.1 mb 0.00 in0.0 mm 0.00 in0.0 mm 0.00 in0.0 mm
04:45 AM 46.8°F8.2°C 29.1°F-1.6°C 50% 7.6 mph WSW12.2 kmh WSW 16.8 mph27.0 kmh 29.80 in1009.1 mb 0.00 in0.0 mm 0.00 in0.0 mm 0.00 in0.0 mm
05:00 AM 46.4°F8.0°C 28.8°F-1.8°C 50% 3.1 mph WSW5.0 kmh WSW 21.3 mph34.3 kmh 29.80 in1009.1 mb 0.00 in0.0 mm 0.00 in0.0 mm 0.00 in0.0 mm
05:15 AM 46.2°F7.9°C 28.6°F-1.9°C 50% 0.7 mph SW1.1 kmh SW 12.1 mph19.5 kmh 29.81 in1009.5 mb 0.00 in0.0 mm 0.00 in0.0 mm 0.00 in0.0 mm
05:30 AM 46.2°F7.9°C 28.1°F-2.2°C 49% 4.5 mph ENE7.2 kmh ENE 8.3 mph13.4 kmh 29.82 in1009.8 mb 0.00 in0.0 mm 0.00 in0.0 mm 0.00 in0.0 mm
05:45 AM 46.0°F7.8°C 27.5°F-2.5°C 48% 0.7 mph NE1.1 kmh NE 6.9 mph11.1 kmh 29.83 in1010.2 mb 0.00 in0.0 mm 0.00 in0.0 mm 0.00 in0.0 mm
06:00 AM 45.9°F7.7°C 26.8°F-2.9°C 47% 5.4 mph W8.7 kmh W 7.6 mph12.2 kmh 29.84 in1010.5 mb 0.00 in0.0 mm 0.00 in0.0 mm 0.00 in0.0 mm
06:15 AM 46.2°F7.9°C 26.6°F-3.0°C 46% 6.9 mph W11.1 kmh W 15.9 mph25.6 kmh 29.84 in1010.5 mb 0.00 in0.0 mm 0.00 in0.0 mm 0.00 in0.0 mm
06:30 AM 46.6°F8.1°C 26.4°F-3.1°C 45% 4.5 mph WSW7.2 kmh WSW 15.2 mph24.5 kmh 29.84 in1010.5 mb 0.00 in0.0 mm 0.00 in0.0 mm 0.00 in0.0 mm
06:45 AM 46.4°F8.0°C 26.2°F-3.2°C 45% 3.8 mph NW6.1 kmh NW 7.6 mph12.2 kmh 29.84 in1010.5 mb 0.00 in0.0 mm 0.00 in0.0 mm 0.00 in0.0 mm
07:00 AM 46.0°F7.8°C 25.9°F-3.4°C 45% 1.6 mph NE2.6 kmh NE 7.6 mph12.2 kmh 29.84 in1010.5 mb 0.00 in0.0 mm 0.00 in0.0 mm 0.00 in0.0 mm
07:15 AM 45.7°F7.6°C 26.1°F-3.3°C 46% 1.6 mph E2.6 kmh E 4.5 mph7.2 kmh 29.84 in1010.5 mb 0.00 in0.0 mm 0.00 in0.0 mm 0.00 in0.0 mm
07:30 AM 45.5°F7.5°C 25.9°F-3.4°C 46% 8.3 mph WSW13.4 kmh WSW 9.2 mph14.8 kmh 29.84 in1010.5 mb 0.00 in0.0 mm 0.00 in0.0 mm 0.00 in0.0 mm
07:45 AM 45.5°F7.5°C 25.9°F-3.4°C 46% 2.2 mph SW3.5 kmh SW 9.8 mph15.8 kmh 29.84 in1010.5 mb 0.00 in0.0 mm 0.00 in0.0 mm 0.00 in0.0 mm
08:00 AM 45.1°F7.3°C 25.6°F-3.6°C 46% 1.6 mph NW2.6 kmh NW 3.8 mph6.1 kmh 29.84 in1010.5 mb 0.00 in0.0 mm 0.00 in0.0 mm 0.00 in0.0 mm
08:15 AM 45.0°F7.2°C 24.9°F-3.9°C 45% 4.5 mph WSW7.2 kmh WSW 7.6 mph12.2 kmh 29.84 in1010.5 mb 0.00 in0.0 mm 0.00 in0.0 mm 0.00 in0.0 mm
08:30 AM 45.1°F7.3°C 24.0°F-4.4°C 43% 4.5 mph WSW7.2 kmh WSW 7.6 mph12.2 kmh 29.84 in1010.5 mb 0.00 in0.0 mm 0.00 in0.0 mm 0.00 in0.0 mm
08:45 AM 45.3°F7.4°C 24.2°F-4.3°C 43% 3.8 mph SE6.1 kmh SE 6.9 mph11.1 kmh 29.84 in1010.5 mb 0.00 in0.0 mm 0.00 in0.0 mm 0.00 in0.0 mm
09:00 AM 45.5°F7.5°C 24.3°F-4.3°C 43% 6.0 mph SW9.7 kmh SW 9.2 mph14.8 kmh 29.84 in1010.5 mb 0.00 in0.0 mm 0.00 in0.0 mm 0.00 in0.0 mm
09:15 AM 45.7°F7.6°C 23.9°F-4.5°C 42% 3.1 mph WSW5.0 kmh WSW 6.0 mph9.7 kmh 29.85 in1010.8 mb 0.00 in0.0 mm 0.00 in0.0 mm 0.00 in0.0 mm
09:30 AM 46.4°F8.0°C 24.6°F-4.1°C 42% 8.3 mph WSW13.4 kmh WSW 10.7 mph17.2 kmh 29.86 in1011.2 mb 0.00 in0.0 mm 0.00 in0.0 mm 0.00 in0.0 mm
09:45 AM 46.9°F8.3°C 25.1°F-3.8°C 42% 5.4 mph WSW8.7 kmh WSW 9.8 mph15.8 kmh 29.86 in1011.2 mb 0.00 in0.0 mm 0.00 in0.0 mm 0.00 in0.0 mm
10:00 AM 47.1°F8.4°C 25.2°F-3.8°C 42% 3.8 mph WSW6.1 kmh WSW 14.5 mph23.3 kmh 29.86 in1011.2 mb 0.00 in0.0 mm 0.00 in0.0 mm 0.00 in0.0 mm
10:15 AM 48.2°F9.0°C 26.8°F-2.9°C 43% 1.6 mph WNW2.6 kmh WNW 11.4 mph18.3 kmh 29.87 in1011.5 mb 0.00 in0.0 mm 0.00 in0.0 mm 0.00 in0.0 mm
10:30 AM 49.3°F9.6°C 27.2°F-2.7°C 42% 7.6 mph WSW12.2 kmh WSW 10.7 mph17.2 kmh 29.87 in1011.5 mb 0.00 in0.0 mm 0.00 in0.0 mm 0.00 in0.0 mm
10:45 AM 50.4°F10.2°C 27.0°F-2.8°C 40% 6.9 mph WSW11.1 kmh WSW 9.8 mph15.8 kmh 29.88 in1011.9 mb 0.00 in0.0 mm 0.00 in0.0 mm 0.00 in0.0 mm
11:00 AM 51.4°F10.8°C 28.5°F-1.9°C 41% 6.0 mph SW9.7 kmh SW 12.1 mph19.5 kmh 29.88 in1011.9 mb 0.00 in0.0 mm 0.00 in0.0 mm 0.00 in0.0 mm
11:15 AM 52.3°F11.3°C 28.7°F-1.8°C 40% 4.5 mph WSW7.2 kmh WSW 9.8 mph15.8 kmh 29.88 in1011.9 mb 0.00 in0.0 mm 0.00 in0.0 mm 0.00 in0.0 mm
11:30 AM 53.2°F11.8°C 26.3°F-3.2°C 35% 5.4 mph SW8.7 kmh SW 10.7 mph17.2 kmh 29.88 in1011.9 mb 0.00 in0.0 mm 0.00 in0.0 mm 0.00 in0.0 mm
11:45 AM 54.1°F12.3°C 24.2°F-4.3°C 31% 5.4 mph SW8.7 kmh SW 12.1 mph19.5 kmh 29.87 in1011.5 mb 0.00 in0.0 mm 0.00 in0.0 mm 0.00 in0.0 mm
12:00 PM 55.0°F12.8°C 24.2°F-4.3°C 30% 7.6 mph SW12.2 kmh SW 13.0 mph20.9 kmh 29.86 in1011.2 mb 0.00 in0.0 mm 0.00 in0.0 mm 0.00 in0.0 mm
12:15 PM 55.4°F13.0°C 24.5°F-4.2°C 30% 6.0 mph WSW9.7 kmh WSW 13.6 mph21.9 kmh 29.86 in1011.2 mb 0.00 in0.0 mm 0.00 in0.0 mm 0.00 in0.0 mm
12:30 PM 55.6°F13.1°C 24.7°F-4.1°C 30% 9.2 mph WSW14.8 kmh WSW 14.5 mph23.3 kmh 29.85 in1010.8 mb 0.00 in0.0 mm 0.00 in0.0 mm 0.00 in0.0 mm
12:45 PM 55.9°F13.3°C 25.8°F-3.4°C 31% 9.2 mph SW14.8 kmh SW 13.6 mph21.9 kmh 29.85 in1010.8 mb 0.00 in0.0 mm 0.00 in0.0 mm 0.00 in0.0 mm
01:00 PM 56.7°F13.7°C 26.4°F-3.1°C 31% 6.9 mph SW11.1 kmh SW 15.9 mph25.6 kmh 29.84 in1010.5 mb 0.00 in0.0 mm 0.00 in0.0 mm 0.00 in0.0 mm
01:15 PM 57.2°F14.0°C 26.9°F-2.8°C 31% 2.2 mph WSW3.5 kmh WSW 13.0 mph20.9 kmh 29.83 in1010.2 mb 0.00 in0.0 mm 0.00 in0.0 mm 0.00 in0.0 mm
01:30 PM 57.6°F14.2°C 26.4°F-3.1°C 30% 9.2 mph SW14.8 kmh SW 16.8 mph27.0 kmh 29.81 in1009.5 mb 0.00 in0.0 mm 0.00 in0.0 mm 0.00 in0.0 mm
01:45 PM 57.9°F14.4°C 21.4°F-5.9°C 24% 9.2 mph SW14.8 kmh SW 18.3 mph29.5 kmh 29.80 in1009.1 mb 0.00 in0.0 mm 0.00 in0.0 mm 0.00 in0.0 mm
02:00 PM 58.1°F14.5°C 17.3°F-8.2°C 20% 7.6 mph SW12.2 kmh SW 14.5 mph23.3 kmh 29.78 in1008.5 mb 0.00 in0.0 mm 0.00 in0.0 mm 0.00 in0.0 mm
02:15 PM 59.2°F15.1°C 11.6°F-11.3°C 15% 11.4 mph SW18.3 kmh SW 15.9 mph25.6 kmh 29.78 in1008.5 mb 0.00 in0.0 mm 0.00 in0.0 mm 0.00 in0.0 mm
02:30 PM 59.4°F15.2°C 11.7°F-11.3°C 15% 7.6 mph WSW12.2 kmh WSW 16.8 mph27.0 kmh 29.77 in1008.1 mb 0.00 in0.0 mm 0.00 in0.0 mm 0.00 in0.0 mm
02:45 PM 60.6°F15.9°C 12.7°F-10.7°C 15% 7.6 mph SW12.2 kmh SW 17.4 mph28.0 kmh 29.77 in1008.1 mb 0.00 in0.0 mm 0.00 in0.0 mm 0.00 in0.0 mm
03:00 PM 59.7°F15.4°C 12.0°F-11.1°C 15% 6.0 mph WSW9.7 kmh WSW 18.3 mph29.5 kmh 29.77 in1008.1 mb 0.00 in0.0 mm 0.00 in0.0 mm 0.00 in0.0 mm
03:15 PM 58.8°F14.9°C 11.3°F-11.5°C 15% 12.1 mph WSW19.5 kmh WSW 15.9 mph25.6 kmh 29.77 in1008.1 mb 0.00 in0.0 mm 0.00 in0.0 mm 0.00 in0.0 mm
03:30 PM 58.6°F14.8°C 11.2°F-11.6°C 15% 9.2 mph SW14.8 kmh SW 18.3 mph29.5 kmh 29.74 in1007.1 mb 0.00 in0.0 mm 0.00 in0.0 mm 0.00 in0.0 mm
03:45 PM 59.0°F15.0°C 11.4°F-11.4°C 15% 13.0 mph W20.9 kmh W 20.6 mph33.2 kmh 29.76 in1007.8 mb 0.00 in0.0 mm 0.00 in0.0 mm 0.00 in0.0 mm
04:00 PM 59.4°F15.2°C 18.3°F-7.6°C 20% 6.9 mph WSW11.1 kmh WSW 14.5 mph23.3 kmh 29.75 in1007.5 mb 0.00 in0.0 mm 0.00 in0.0 mm 0.00 in0.0 mm
04:15 PM 59.2°F15.1°C 18.2°F-7.7°C 20% 6.0 mph WSW9.7 kmh WSW 17.4 mph28.0 kmh 29.76 in1007.8 mb 0.00 in0.0 mm 0.00 in0.0 mm 0.00 in0.0 mm
04:30 PM 58.8°F14.9°C 20.1°F-6.6°C 22% 7.6 mph SW12.2 kmh SW 18.3 mph29.5 kmh 29.75 in1007.5 mb 0.00 in0.0 mm 0.00 in0.0 mm 0.00 in0.0 mm
04:45 PM 58.6°F14.8°C 17.7°F-7.9°C 20% 7.6 mph WSW12.2 kmh WSW 17.4 mph28.0 kmh 29.75 in1007.5 mb 0.00 in0.0 mm 0.00 in0.0 mm 0.00 in0.0 mm
05:00 PM 58.3°F14.6°C 17.4°F-8.1°C 20% 5.4 mph W8.7 kmh W 12.1 mph19.5 kmh 29.75 in1007.5 mb 0.00 in0.0 mm 0.00 in0.0 mm 0.00 in0.0 mm
05:15 PM 57.2°F14.0°C 18.7°F-7.4°C 22% 8.3 mph WSW13.4 kmh WSW 15.9 mph25.6 kmh 29.74 in1007.1 mb 0.00 in0.0 mm 0.00 in0.0 mm 0.00 in0.0 mm
05:30 PM 56.1°F13.4°C 19.8°F-6.8°C 24% 9.8 mph WSW15.8 kmh WSW 15.9 mph25.6 kmh 29.73 in1006.8 mb 0.00 in0.0 mm 0.00 in0.0 mm 0.00 in0.0 mm
05:45 PM 55.8°F13.2°C 19.5°F-6.9°C 24% 9.2 mph WSW14.8 kmh WSW 15.9 mph25.6 kmh 29.74 in1007.1 mb 0.00 in0.0 mm 0.00 in0.0 mm 0.00 in0.0 mm
06:00 PM 55.4°F13.0°C 19.2°F-7.1°C 24% 9.8 mph WSW15.8 kmh WSW 19.0 mph30.6 kmh 29.75 in1007.5 mb 0.00 in0.0 mm 0.00 in0.0 mm 0.00 in0.0 mm
07:00 PM 54.1°F12.3°C 20.0°F-6.7°C 26% 3.1 mph SW5.0 kmh SW 10.7 mph17.2 kmh 29.76 in1007.8 mb 0.00 in0.0 mm 0.00 in0.0 mm 0.00 in0.0 mm
07:15 PM 54.0°F12.2°C 19.9°F-6.7°C 26% 3.1 mph NW5.0 kmh NW 11.4 mph18.3 kmh 29.78 in1008.5 mb 0.00 in0.0 mm 0.00 in0.0 mm 0.00 in0.0 mm
07:30 PM 53.8°F12.1°C 23.1°F-4.9°C 30% 4.5 mph W7.2 kmh W 9.2 mph14.8 kmh 29.78 in1008.5 mb 0.00 in0.0 mm 0.00 in0.0 mm 0.00 in0.0 mm
07:45 PM 53.4°F11.9°C 22.8°F-5.1°C 30% 6.9 mph SSE11.1 kmh SSE 9.8 mph15.8 kmh 29.79 in1008.8 mb 0.00 in0.0 mm 0.00 in0.0 mm 0.00 in0.0 mm
08:00 PM 53.1°F11.7°C 24.0°F-4.4°C 32% 8.3 mph SW13.4 kmh SW 13.6 mph21.9 kmh 29.79 in1008.8 mb 0.00 in0.0 mm 0.00 in0.0 mm 0.00 in0.0 mm
08:15 PM 52.7°F11.5°C 25.1°F-3.8°C 34% 6.9 mph W11.1 kmh W 13.6 mph21.9 kmh 29.79 in1008.8 mb 0.00 in0.0 mm 0.00 in0.0 mm 0.00 in0.0 mm
08:30 PM 52.3°F11.3°C 26.9°F-2.8°C 37% 3.8 mph WSW6.1 kmh WSW 8.3 mph13.4 kmh 29.79 in1008.8 mb 0.00 in0.0 mm 0.00 in0.0 mm 0.00 in0.0 mm
08:45 PM 52.0°F11.1°C 28.4°F-2.0°C 40% 3.8 mph SSW6.1 kmh SSW 9.2 mph14.8 kmh 29.79 in1008.8 mb 0.00 in0.0 mm 0.00 in0.0 mm 0.00 in0.0 mm
09:00 PM 51.8°F11.0°C 28.9°F-1.7°C 41% 2.2 mph WSW3.5 kmh WSW 11.4 mph18.3 kmh 29.78 in1008.5 mb 0.00 in0.0 mm 0.00 in0.0 mm 0.00 in0.0 mm
09:15 PM 51.6°F10.9°C 29.3°F-1.5°C 42% 6.0 mph NE9.7 kmh NE 7.6 mph12.2 kmh 29.79 in1008.8 mb 0.00 in0.0 mm 0.00 in0.0 mm 0.00 in0.0 mm
09:30 PM 51.8°F11.0°C 30.0°F-1.1°C 43% 3.8 mph SSW6.1 kmh SSW 9.2 mph14.8 kmh 29.80 in1009.1 mb 0.00 in0.0 mm 0.00 in0.0 mm 0.00 in0.0 mm
09:45 PM 51.6°F10.9°C 29.9°F-1.2°C 43% 3.8 mph WSW6.1 kmh WSW 7.6 mph12.2 kmh 29.79 in1008.8 mb 0.00 in0.0 mm 0.00 in0.0 mm 0.00 in0.0 mm
10:00 PM 51.6°F10.9°C 30.4°F-0.9°C 44% 1.6 mph SW2.6 kmh SW 9.8 mph15.8 kmh 29.79 in1008.8 mb 0.00 in0.0 mm 0.00 in0.0 mm 0.00 in0.0 mm
10:15 PM 51.3°F10.7°C 30.7°F-0.7°C 45% 7.6 mph SW12.2 kmh SW 9.8 mph15.8 kmh 29.79 in1008.8 mb 0.00 in0.0 mm 0.00 in0.0 mm 0.00 in0.0 mm
10:30 PM 51.4°F10.8°C 31.9°F-0.1°C 47% 5.4 mph SW8.7 kmh SW 12.1 mph19.5 kmh 29.80 in1009.1 mb 0.00 in0.0 mm 0.00 in0.0 mm 0.00 in0.0 mm
10:45 PM 51.1°F10.6°C 32.1°F0.1°C 48% 6.9 mph SW11.1 kmh SW 13.0 mph20.9 kmh 29.80 in1009.1 mb 0.00 in0.0 mm 0.00 in0.0 mm 0.00 in0.0 mm
11:00 PM 50.9°F10.5°C 32.4°F0.2°C 49% 5.4 mph S8.7 kmh S 13.6 mph21.9 kmh 29.79 in1008.8 mb 0.00 in0.0 mm 0.00 in0.0 mm 0.00 in0.0 mm
11:15 PM 50.9°F10.5°C 32.9°F0.5°C 50% 6.0 mph SW9.7 kmh SW 16.8 mph27.0 kmh 29.79 in1008.8 mb 0.00 in0.0 mm 0.00 in0.0 mm 0.00 in0.0 mm
11:30 PM 50.4°F10.2°C 32.9°F0.5°C 51% 5.4 mph SW8.7 kmh SW 8.3 mph13.4 kmh 29.80 in1009.1 mb 0.00 in0.0 mm 0.00 in0.0 mm 0.00 in0.0 mm
11:45 PM 50.0°F10.0°C 33.6°F0.9°C 53% 4.5 mph SW7.2 kmh SW 9.8 mph15.8 kmh 29.80 in1009.1 mb 0.00 in0.0 mm 0.00 in0.0 mm 0.00 in0.0 mm